createdAt,value
2024-04-10T00:00:26.736Z,1.77
2024-04-10T00:02:53.827Z,1.75
2024-04-10T00:05:21.206Z,2.15
2024-04-10T00:07:49.800Z,2.03
2024-04-10T00:10:17.335Z,1.55
2024-04-10T00:12:44.708Z,2.13
2024-04-10T00:15:11.761Z,2.47
2024-04-10T00:17:39.325Z,1.85
2024-04-10T00:20:07.108Z,1.90
2024-04-10T00:22:34.310Z,1.85
2024-04-10T00:25:02.672Z,2.17
2024-04-10T00:27:29.882Z,2.42
2024-04-10T00:29:57.815Z,1.73
2024-04-10T00:32:27.294Z,1.90
2024-04-10T00:34:55.511Z,2.22
2024-04-10T00:37:22.701Z,1.77
2024-04-10T00:39:49.830Z,2.00
2024-04-10T00:42:17.131Z,1.83
2024-04-10T00:44:52.402Z,2.00
2024-04-10T00:47:22.564Z,1.97
2024-04-10T00:49:49.971Z,2.10
2024-04-10T00:52:17.634Z,2.38
2024-04-10T00:54:44.879Z,2.22
2024-04-10T00:57:12.040Z,2.15
2024-04-10T00:59:39.657Z,1.92
2024-04-10T01:02:07.085Z,2.20
2024-04-10T01:04:34.550Z,2.05
2024-04-10T01:07:07.564Z,2.63
2024-04-10T01:09:34.768Z,1.77
2024-04-10T01:12:02.012Z,2.13
2024-04-10T01:14:29.502Z,2.30
2024-04-10T01:16:56.796Z,2.47
2024-04-10T01:19:27.183Z,2.05
2024-04-10T01:21:54.239Z,2.15
2024-04-10T01:24:21.338Z,2.15
2024-04-10T01:26:48.740Z,2.53
2024-04-10T01:29:16.040Z,2.35
2024-04-10T01:31:43.517Z,1.67
2024-04-10T01:34:10.720Z,2.35
2024-04-10T01:38:16.619Z,2.08
2024-04-10T01:40:45.190Z,2.10
2024-04-10T01:43:12.470Z,1.80
2024-04-10T01:45:39.765Z,1.92
2024-04-10T01:48:07.316Z,2.35
2024-04-10T01:50:34.883Z,2.25
2024-04-10T01:53:02.236Z,2.45
2024-04-10T01:55:29.258Z,2.10
2024-04-10T01:57:56.809Z,2.10
2024-04-10T02:00:27.459Z,1.95
2024-04-10T02:02:55.092Z,2.00
2024-04-10T02:05:22.423Z,2.60
2024-04-10T02:07:49.574Z,2.78
2024-04-10T02:10:16.967Z,2.55
2024-04-10T02:12:44.224Z,2.22
2024-04-10T02:15:11.358Z,2.15
2024-04-10T02:17:39.040Z,2.03
2024-04-10T02:20:08.867Z,1.65
2024-04-10T02:22:36.182Z,1.95
2024-04-10T02:25:03.441Z,2.40
2024-04-10T02:27:30.808Z,2.08
2024-04-10T02:29:58.897Z,2.28
2024-04-10T02:32:26.262Z,2.72
2024-04-10T02:34:54.699Z,2.67
2024-04-10T02:37:21.836Z,2.00
2024-04-10T02:39:49.347Z,2.38
2024-04-10T02:42:16.451Z,2.95
2024-04-10T02:44:45.477Z,2.28
2024-04-10T02:47:12.786Z,2.20
2024-04-10T02:49:40.020Z,1.80
2024-04-10T02:52:07.613Z,2.17
2024-04-10T02:54:34.789Z,2.45
2024-04-10T02:57:01.950Z,2.60
2024-04-10T02:59:29.243Z,2.42
2024-04-10T03:01:56.561Z,2.05
2024-04-10T03:04:23.917Z,2.03
2024-04-10T03:06:51.061Z,2.40
2024-04-10T03:09:18.204Z,2.08
2024-04-10T03:11:45.628Z,2.38
2024-04-10T03:14:12.884Z,2.55
2024-04-10T03:16:40.099Z,2.03
2024-04-10T03:19:08.187Z,1.90
2024-04-10T03:21:35.346Z,2.13
2024-04-10T03:24:02.485Z,2.15
2024-04-10T03:26:30.772Z,2.35
2024-04-10T03:28:57.923Z,2.58
2024-04-10T03:31:24.952Z,2.67
2024-04-10T03:33:52.320Z,2.63
2024-04-10T03:36:19.400Z,3.05
2024-04-10T03:38:46.486Z,2.85
2024-04-10T03:41:13.898Z,2.33
2024-04-10T03:43:42.467Z,3.15
2024-04-10T03:46:18.979Z,2.83
2024-04-10T03:48:48.640Z,2.30
2024-04-10T03:51:16.116Z,1.95
2024-04-10T03:53:44.083Z,2.60
2024-04-10T03:56:11.850Z,2.70
2024-04-10T03:58:39.452Z,2.67
2024-04-10T04:01:06.832Z,2.80
2024-04-10T04:03:35.473Z,2.63
2024-04-10T04:06:03.050Z,3.50
2024-04-10T04:08:30.235Z,2.67
2024-04-10T04:10:58.630Z,2.55
2024-04-10T04:13:27.735Z,3.13
2024-04-10T04:15:54.844Z,2.22
2024-04-10T04:18:21.986Z,2.88
2024-04-10T04:20:52.291Z,3.05
2024-04-10T04:23:19.610Z,2.08
2024-04-10T04:25:46.894Z,3.08
2024-04-10T04:28:13.915Z,2.63
2024-04-10T04:30:47.115Z,1.85
2024-04-10T04:33:14.657Z,2.42
2024-04-10T04:35:41.847Z,2.03
2024-04-10T04:38:10.114Z,2.58
2024-04-10T04:40:37.373Z,2.53
2024-04-10T04:43:11.253Z,2.17
2024-04-10T04:45:40.243Z,2.55
2024-04-10T04:48:08.321Z,2.13
2024-04-10T04:50:36.527Z,2.70
2024-04-10T04:53:03.836Z,1.88
2024-04-10T04:55:32.518Z,2.03
2024-04-10T04:57:59.577Z,2.15
2024-04-10T05:00:27.168Z,2.33
2024-04-10T05:02:54.661Z,2.50
2024-04-10T05:05:23.214Z,2.53
2024-04-10T05:07:50.615Z,1.85
2024-04-10T05:10:18.164Z,2.38
2024-04-10T05:12:45.533Z,2.05
2024-04-10T05:15:13.907Z,2.00
2024-04-10T05:17:42.682Z,2.72
2024-04-10T05:20:18.463Z,1.92
2024-04-10T05:25:13.888Z,2.17
2024-04-10T05:27:43.041Z,1.70
2024-04-10T05:30:11.030Z,1.70
2024-04-10T05:32:42.042Z,1.92
2024-04-10T05:35:16.581Z,2.70
2024-04-10T05:37:43.895Z,2.05
2024-04-10T05:40:15.232Z,2.17
2024-04-10T05:42:42.821Z,1.65
2024-04-10T05:45:10.586Z,2.30
2024-04-10T05:47:38.623Z,1.85
2024-04-10T05:50:07.132Z,1.65
2024-04-10T05:52:34.864Z,1.63
2024-04-10T05:55:02.204Z,1.42
2024-04-10T05:57:29.365Z,1.70
2024-04-10T05:59:56.562Z,2.88
2024-04-10T06:02:24.123Z,2.53
2024-04-10T06:04:54.475Z,2.13
2024-04-10T06:07:21.805Z,3.13
2024-04-10T06:09:59.707Z,1.98
2024-04-10T06:12:27.047Z,1.80
2024-04-10T06:14:54.884Z,2.65
2024-04-10T06:17:22.920Z,2.35
2024-04-10T06:19:50.519Z,2.50
2024-04-10T06:22:20.163Z,1.70
2024-04-10T06:24:49.492Z,2.22
2024-04-10T06:27:16.624Z,1.75
2024-04-10T06:29:44.530Z,2.10
2024-04-10T06:32:13.027Z,2.33
2024-04-10T06:34:41.327Z,1.67
2024-04-10T06:37:08.758Z,2.03
2024-04-10T06:39:36.277Z,1.85
2024-04-10T06:42:03.571Z,1.90
2024-04-10T06:44:31.060Z,2.40
2024-04-10T06:46:58.713Z,1.52
2024-04-10T06:49:28.833Z,1.70
2024-04-10T06:51:56.890Z,1.63
2024-04-10T06:54:24.180Z,1.98
2024-04-10T06:56:51.765Z,1.98
2024-04-10T06:59:19.865Z,1.48
2024-04-10T07:01:46.971Z,1.58
2024-04-10T07:06:40.977Z,1.75
2024-04-10T07:09:10.599Z,1.92
2024-04-10T07:11:38.792Z,1.73
2024-04-10T07:14:06.498Z,2.10
2024-04-10T07:16:34.029Z,1.80
2024-04-10T07:19:01.430Z,1.65
2024-04-10T07:23:59.738Z,1.70
2024-04-10T07:26:29.102Z,1.25
2024-04-10T07:33:54.134Z,1.80
2024-04-10T07:36:22.862Z,1.27
2024-04-10T07:38:50.277Z,1.42
2024-04-10T07:41:18.630Z,1.33
2024-04-10T07:48:47.164Z,1.67
2024-04-10T07:51:15.168Z,1.80
2024-04-10T07:53:43.445Z,1.33
2024-04-10T07:56:11.803Z,1.10
2024-04-10T07:58:39.068Z,1.42
2024-04-10T08:01:06.827Z,1.40
2024-04-10T08:03:34.776Z,1.50
2024-04-10T08:20:45.071Z,1.33
2024-04-10T08:23:12.212Z,1.33
2024-04-10T08:25:41.564Z,1.45
2024-04-10T08:28:08.684Z,1.25
2024-04-10T08:30:35.841Z,0.77
2024-04-10T08:35:30.375Z,1.33
2024-04-10T08:37:57.742Z,1.15
2024-04-10T08:40:25.626Z,0.85
2024-04-10T08:45:21.509Z,1.00
2024-04-10T08:47:49.522Z,0.95
2024-04-10T08:50:17.243Z,0.98
2024-04-10T08:52:45.521Z,1.42
2024-04-10T08:55:13.039Z,1.00
2024-04-10T08:57:40.476Z,0.80
2024-04-10T09:00:09.156Z,1.00
2024-04-10T09:02:39.075Z,1.40
2024-04-10T09:05:06.520Z,1.05
2024-04-10T09:07:33.867Z,0.93
2024-04-10T09:10:11.044Z,0.82
2024-04-10T09:12:38.105Z,0.52
2024-04-10T09:15:11.070Z,0.98
2024-04-10T09:17:38.322Z,1.10
2024-04-10T09:20:12.715Z,0.68
2024-04-10T09:22:39.894Z,0.95
2024-04-10T09:25:11.663Z,0.80
2024-04-10T09:27:38.774Z,0.80
2024-04-10T09:30:06.859Z,0.70
2024-04-10T09:32:37.362Z,0.95
2024-04-10T09:35:06.914Z,0.90
2024-04-10T09:37:36.241Z,0.75
2024-04-10T09:40:03.372Z,0.90
2024-04-10T09:42:32.982Z,0.80
2024-04-10T09:45:07.407Z,0.77
2024-04-10T09:47:37.189Z,0.80
2024-04-10T09:50:06.030Z,0.93
2024-04-10T09:52:34.354Z,0.90
2024-04-10T09:55:01.636Z,0.80
2024-04-10T09:57:29.107Z,0.75
2024-04-10T10:02:23.502Z,0.77
2024-04-10T10:04:51.017Z,0.50
2024-04-10T10:07:24.748Z,0.70
2024-04-10T10:09:52.537Z,0.70
2024-04-10T10:12:27.214Z,0.77
2024-04-10T10:14:54.508Z,0.73
2024-04-10T10:17:28.476Z,0.70
2024-04-10T10:19:55.697Z,0.80
2024-04-10T10:22:23.010Z,0.70
2024-04-10T10:24:59.605Z,0.50
2024-04-10T10:27:27.004Z,0.57
2024-04-10T10:30:11.484Z,0.65
2024-04-10T10:32:38.852Z,0.80
2024-04-10T10:40:07.815Z,0.90
2024-04-10T10:42:35.168Z,0.75
2024-04-10T10:45:06.504Z,0.55
2024-04-10T10:50:05.111Z,0.60
2024-04-10T10:52:33.069Z,0.40
2024-04-10T10:55:09.094Z,0.45
2024-04-10T10:57:36.470Z,0.60
2024-04-10T11:00:17.590Z,0.75
2024-04-10T11:02:45.319Z,0.50
2024-04-10T11:05:13.284Z,0.63
2024-04-10T11:07:40.876Z,0.90
2024-04-10T11:10:12.200Z,0.60
2024-04-10T11:12:39.411Z,0.52
2024-04-10T11:15:07.264Z,0.50
2024-04-10T11:17:34.821Z,0.50
2024-04-10T11:20:02.119Z,0.52
2024-04-10T11:22:29.292Z,0.63
2024-04-10T11:24:56.515Z,0.40
2024-04-10T11:27:23.626Z,0.60
2024-04-10T11:29:52.192Z,0.60
2024-04-10T11:32:19.823Z,0.60
2024-04-10T11:34:47.099Z,0.55
2024-04-10T11:37:14.569Z,0.50
2024-04-10T11:39:41.727Z,0.65
2024-04-10T11:42:09.904Z,0.50
2024-04-10T11:44:37.243Z,0.65
2024-04-10T11:47:04.623Z,0.52
2024-04-10T11:49:32.399Z,0.60
2024-04-10T11:51:59.500Z,0.57
2024-04-10T11:54:26.876Z,0.38
2024-04-10T11:56:54.419Z,0.57
2024-04-10T11:59:21.595Z,0.60
2024-04-10T12:01:50.256Z,0.63
2024-04-10T12:04:18.593Z,0.40
2024-04-10T12:06:45.782Z,0.50
2024-04-10T12:09:13.391Z,0.57
2024-04-10T12:11:40.595Z,0.60
2024-04-10T12:14:09.214Z,0.50
2024-04-10T12:16:37.873Z,0.68
2024-04-10T12:19:07.445Z,0.50
2024-04-10T12:21:34.748Z,0.50
2024-04-10T12:24:03.942Z,0.70
2024-04-10T12:26:34.649Z,0.50
2024-04-10T12:29:02.051Z,0.35
2024-04-10T12:31:29.157Z,0.70
2024-04-10T12:33:56.411Z,0.50
2024-04-10T12:36:42.482Z,0.43
2024-04-10T12:39:10.422Z,0.65
2024-04-10T12:41:37.796Z,0.40
2024-04-10T12:44:18.563Z,0.60
2024-04-10T12:46:46.664Z,0.52
2024-04-10T12:49:14.086Z,0.63
2024-04-10T12:51:41.272Z,0.70
2024-04-10T12:54:08.462Z,0.65
2024-04-10T12:56:36.569Z,0.70
2024-04-10T12:59:04.438Z,0.70
2024-04-10T13:01:34.645Z,0.80
2024-04-10T13:04:02.022Z,0.50
2024-04-10T13:06:29.163Z,0.77
2024-04-10T13:08:56.570Z,0.47
2024-04-10T13:11:23.851Z,0.70
2024-04-10T13:13:51.117Z,0.90
2024-04-10T13:16:18.499Z,0.80
2024-04-10T13:18:46.047Z,0.65
2024-04-10T13:21:13.432Z,0.80
2024-04-10T13:23:42.492Z,0.70
2024-04-10T13:26:14.852Z,0.63
2024-04-10T13:28:44.086Z,0.75
2024-04-10T13:31:13.501Z,0.70
2024-04-10T13:33:42.512Z,0.90
2024-04-10T13:36:12.632Z,0.55
2024-04-10T13:38:40.215Z,0.73
2024-04-10T13:41:07.540Z,0.75
2024-04-10T13:43:38.116Z,0.70
2024-04-10T13:46:06.540Z,0.77
2024-04-10T13:48:33.738Z,0.80
2024-04-10T13:51:01.232Z,0.88
2024-04-10T13:53:28.453Z,0.65
2024-04-10T13:56:16.426Z,0.82
2024-04-10T13:58:43.702Z,0.50
2024-04-10T14:01:12.349Z,0.70
2024-04-10T14:03:40.626Z,0.82
2024-04-10T14:06:09.529Z,0.70
2024-04-10T14:08:37.375Z,0.70
2024-04-10T14:11:08.383Z,0.90
2024-04-10T14:13:36.716Z,0.73
2024-04-10T14:16:04.571Z,0.75
2024-04-10T14:18:33.074Z,0.80
2024-04-10T14:21:04.440Z,0.70
2024-04-10T14:23:32.697Z,0.77
2024-04-10T14:26:02.074Z,0.90
2024-04-10T14:28:29.597Z,0.80
2024-04-10T14:30:59.598Z,0.73
2024-04-10T14:33:29.823Z,0.75
2024-04-10T14:35:58.163Z,0.73
2024-04-10T14:38:29.361Z,0.82
2024-04-10T14:40:57.355Z,0.77
2024-04-10T14:43:24.830Z,0.73
2024-04-10T14:45:56.057Z,0.90
2024-04-10T14:48:23.642Z,0.68
2024-04-10T14:51:01.746Z,0.90
2024-04-10T14:53:30.010Z,1.10
2024-04-10T14:56:25.414Z,1.55
2024-04-10T14:58:52.701Z,1.23
2024-04-10T15:01:21.476Z,0.88
2024-04-10T15:03:49.653Z,0.80
2024-04-10T15:06:17.627Z,1.70
2024-04-10T15:08:49.033Z,2.08
2024-04-10T15:11:23.529Z,1.23
2024-04-10T15:13:50.779Z,13.07
2024-04-10T15:16:19.434Z,1.63
2024-04-10T15:18:47.110Z,1.27
2024-04-10T15:21:14.297Z,1.30
2024-04-10T15:23:41.743Z,1.08
2024-04-10T15:26:08.909Z,1.00
2024-04-10T15:28:36.331Z,1.33
2024-04-10T15:31:07.348Z,0.82
2024-04-10T15:33:35.939Z,1.23
2024-04-10T15:36:04.618Z,1.10
2024-04-10T15:38:33.118Z,1.02
2024-04-10T15:41:01.047Z,0.95
2024-04-10T15:43:29.031Z,1.42
2024-04-10T15:45:57.110Z,1.25
2024-04-10T15:48:24.590Z,1.35
2024-04-10T15:50:52.408Z,1.50
2024-04-10T15:53:20.139Z,1.17
2024-04-10T15:55:47.622Z,1.23
2024-04-10T15:58:15.031Z,4.35
2024-04-10T16:00:42.417Z,4.78
2024-04-10T16:03:09.890Z,3.25
2024-04-10T16:05:38.452Z,9.23
2024-04-10T16:08:07.214Z,7.75
2024-04-10T16:10:37.915Z,4.13
2024-04-10T16:13:05.464Z,4.88
2024-04-10T16:15:32.664Z,2.20
2024-04-10T16:18:00.120Z,2.25
2024-04-10T16:20:28.140Z,1.80
2024-04-10T16:22:55.644Z,1.95
2024-04-10T16:25:22.794Z,2.00
2024-04-10T16:27:49.949Z,1.70
2024-04-10T16:30:24.329Z,1.80
2024-04-10T16:37:45.914Z,2.05
2024-04-10T16:40:13.054Z,2.03
2024-04-10T16:42:40.409Z,1.60
2024-04-10T16:45:07.846Z,1.73
2024-04-10T16:47:35.679Z,1.40
2024-04-10T16:50:03.874Z,1.67
2024-04-10T16:52:30.950Z,1.83
2024-04-10T16:54:58.264Z,1.35
2024-04-10T16:57:25.679Z,1.17
2024-04-10T16:59:52.957Z,1.38
2024-04-10T17:02:20.068Z,0.93
2024-04-10T17:04:49.031Z,1.10
2024-04-10T17:07:16.655Z,0.93
2024-04-10T17:09:43.864Z,1.38
2024-04-10T17:12:10.962Z,1.33
2024-04-10T17:14:38.114Z,1.83
2024-04-10T17:17:06.978Z,1.23
2024-04-10T17:19:53.071Z,1.02
2024-04-10T17:22:20.370Z,0.88
2024-04-10T17:24:47.696Z,1.08
2024-04-10T17:27:14.765Z,0.82
2024-04-10T17:29:41.965Z,1.13
2024-04-10T17:32:10.672Z,1.10
2024-04-10T17:34:39.510Z,1.02
2024-04-10T17:37:06.803Z,1.05
2024-04-10T17:39:40.490Z,0.82
2024-04-10T17:42:08.241Z,0.93
2024-04-10T17:44:35.540Z,1.02
2024-04-10T17:47:02.605Z,1.00
2024-04-10T17:49:29.849Z,1.30
2024-04-10T17:51:57.397Z,1.20
2024-04-10T17:54:24.423Z,1.40
2024-04-10T17:56:51.750Z,0.98
2024-04-10T17:59:18.947Z,1.13
2024-04-10T18:01:46.224Z,0.98
2024-04-10T18:04:13.743Z,1.77
2024-04-10T18:06:41.370Z,1.02
2024-04-10T18:09:09.985Z,1.00
2024-04-10T18:11:37.463Z,1.17
2024-04-10T18:14:04.627Z,1.17
2024-04-10T18:16:32.821Z,1.25
2024-04-10T18:19:01.406Z,1.10
2024-04-10T18:21:28.845Z,0.90
2024-04-10T18:23:56.426Z,1.50
2024-04-10T18:26:23.894Z,1.20
2024-04-10T18:28:50.960Z,1.50
2024-04-10T18:31:18.010Z,1.40
2024-04-10T18:33:45.767Z,1.55
2024-04-10T18:36:13.853Z,0.90
2024-04-10T18:38:42.066Z,1.25
2024-04-10T18:41:16.601Z,0.90
2024-04-10T18:43:43.989Z,1.63
2024-04-10T18:46:16.007Z,1.38
2024-04-10T18:48:43.539Z,1.45
2024-04-10T18:51:16.181Z,1.63
2024-04-10T18:53:47.709Z,3.10
2024-04-10T18:56:15.068Z,1.40
2024-04-10T18:58:43.732Z,1.10
2024-04-10T19:01:11.559Z,1.00
2024-04-10T19:03:43.665Z,1.33
2024-04-10T19:06:17.478Z,1.02
2024-04-10T19:08:45.005Z,1.13
2024-04-10T19:11:14.622Z,1.38
2024-04-10T19:13:42.280Z,1.92
2024-04-10T19:16:09.628Z,0.63
2024-04-10T19:18:37.127Z,0.88
2024-04-10T19:21:05.777Z,0.93
2024-04-10T19:23:37.174Z,1.00
2024-04-10T19:26:05.066Z,1.00
2024-04-10T19:28:33.236Z,1.42
2024-04-10T19:31:01.212Z,1.15
2024-04-10T19:33:28.975Z,0.82
2024-04-10T19:36:14.544Z,1.05
2024-04-10T19:38:45.489Z,0.93
2024-04-10T19:41:13.925Z,1.08
2024-04-10T19:43:41.601Z,1.10
2024-04-10T19:46:08.878Z,1.30
2024-04-10T19:48:36.374Z,0.90
2024-04-10T19:51:05.440Z,1.15
2024-04-10T19:53:34.434Z,1.25
2024-04-10T19:56:03.740Z,0.85
2024-04-10T19:58:34.373Z,1.00
2024-04-10T20:01:08.788Z,1.10
2024-04-10T20:03:36.840Z,1.13
2024-04-10T20:06:05.155Z,1.17
2024-04-10T20:08:38.016Z,1.27
2024-04-10T20:11:05.703Z,1.30
2024-04-10T20:13:33.066Z,1.20
2024-04-10T20:16:04.991Z,1.00
2024-04-10T20:18:33.899Z,1.25
2024-04-10T20:21:11.151Z,1.67
2024-04-10T20:23:39.079Z,1.30
2024-04-10T20:26:07.277Z,1.27
2024-04-10T20:28:35.372Z,1.48
2024-04-10T20:31:06.876Z,0.90
2024-04-10T20:33:34.789Z,1.15
2024-04-10T20:36:02.615Z,1.10
2024-04-10T20:38:30.479Z,1.25
2024-04-10T20:40:58.348Z,1.00
2024-04-10T20:43:25.466Z,1.27
2024-04-10T20:45:59.609Z,1.88
2024-04-10T20:48:27.351Z,1.40
2024-04-10T20:50:54.995Z,1.08
2024-04-10T20:53:24.040Z,1.13
2024-04-10T20:56:01.905Z,1.35
2024-04-10T20:58:29.418Z,0.82
2024-04-10T21:01:07.266Z,0.98
2024-04-10T21:03:35.203Z,1.20
2024-04-10T21:06:02.578Z,1.52
2024-04-10T21:08:48.843Z,1.77
2024-04-10T21:11:35.578Z,0.95
2024-04-10T21:14:21.802Z,0.93
2024-04-10T21:17:08.706Z,1.20
2024-04-10T21:19:55.115Z,1.67
2024-04-10T21:22:41.243Z,1.33
2024-04-10T21:25:27.997Z,1.00
2024-04-10T21:28:15.120Z,1.38
2024-04-10T21:31:01.846Z,1.38
2024-04-10T21:36:33.364Z,1.20
2024-04-10T21:39:19.232Z,1.35
2024-04-10T21:42:05.064Z,1.45
2024-04-10T21:44:50.877Z,0.98
2024-04-10T21:47:37.042Z,1.20
2024-04-10T21:50:23.357Z,1.02
2024-04-10T21:53:09.512Z,1.08
2024-04-10T21:55:57.473Z,1.13
2024-04-10T21:58:44.142Z,1.40
2024-04-10T22:01:32.198Z,1.27
2024-04-10T22:04:20.023Z,1.52
2024-04-10T22:09:33.521Z,0.77
2024-04-10T22:12:04.770Z,1.05
2024-04-10T22:14:32.346Z,0.88
2024-04-10T22:17:18.467Z,1.20
2024-04-10T22:20:06.059Z,1.08
2024-04-10T22:22:51.912Z,1.30
2024-04-10T22:25:19.103Z,1.38
2024-04-10T22:27:46.312Z,1.30
2024-04-10T22:30:17.593Z,1.10
2024-04-10T22:32:44.880Z,1.88
2024-04-10T22:35:12.043Z,1.13
2024-04-10T22:37:39.336Z,1.10
2024-04-10T22:40:08.226Z,1.38
2024-04-10T22:42:35.886Z,1.27
2024-04-10T22:45:03.300Z,0.77
2024-04-10T22:47:32.820Z,1.60
2024-04-10T22:50:00.799Z,0.98
2024-04-10T22:52:28.211Z,1.30
2024-04-10T22:54:55.436Z,1.00
2024-04-10T22:57:22.565Z,1.23
2024-04-10T22:59:49.696Z,1.08
2024-04-10T23:02:21.390Z,1.25
2024-04-10T23:04:49.019Z,1.63
2024-04-10T23:07:49.654Z,1.05
2024-04-10T23:10:17.567Z,1.00
2024-04-10T23:12:56.792Z,0.85
2024-04-10T23:15:26.301Z,1.38
2024-04-10T23:17:59.781Z,1.13
2024-04-10T23:20:44.838Z,1.30
2024-04-10T23:23:41.370Z,1.40
2024-04-10T23:26:08.455Z,0.88
2024-04-10T23:28:35.561Z,1.30
2024-04-10T23:31:04.501Z,0.85
2024-04-10T23:33:31.759Z,1.02
2024-04-10T23:35:59.262Z,1.00
2024-04-10T23:38:26.566Z,1.00
2024-04-10T23:40:54.471Z,1.40
2024-04-10T23:43:22.532Z,1.10
2024-04-10T23:45:56.184Z,1.02
2024-04-10T23:48:25.284Z,1.17
2024-04-10T23:50:55.402Z,1.00
2024-04-10T23:53:23.226Z,1.00
2024-04-10T23:55:50.636Z,1.25
2024-04-10T23:58:20.046Z,0.73
